• Join FlightAware (Why Join?)
  • Login
  • US Flag 
08:55AM EST


 

Airport Tracker/Info


-or-


 

Live Flight TrackerFlight Track Log ✈ FFT917 ✈ 13-Jul-2013 ✈ KTTN - KMCO

Flight Track Log - Related Links

Times and Time Zones

All times are in EDT time to prevent confusion due to time zone crossing. See the FFT917 flight status page for this flight to view local times or setup timezone preferences in your user account.

Time Position Orientation Groundspeed Altitude Reporting Facility
EDT Latitude Longitude Course Direction KTS MPH feet Rate Location/Type
07:59AM 40.2833 -74.8000 159° South 142 163 800  Level Philadelphia TRACON
08:01AM 40.2500 -74.7833 159° South 223 257 2,600 2,040 Climbing Philadelphia TRACON
08:02AM 40.2000 -74.8667 232° Southwest 265 305 5,600 2,640 Climbing Philadelphia TRACON
08:03AM 40.1500 -74.9333 226° Southwest 261 300 7,900 2,280 Climbing Philadelphia TRACON
08:04AM 40.1028 -74.9881 222° Southwest 281 323 10,100 1,020 Climbing New York Center
08:05AM 40.0461 -75.0578 223° Southwest 270 311 10,000 -60 Descending New York Center
08:06AM 40.0197 -75.1539 250° West 288 331 10,000  Level New York Center
08:07AM 39.9881 -75.2683 250° West 330 380 10,000  Level New York Center
08:08AM 39.9500 -75.3958 249° West 349 402 10,000 780 Level New York Center
08:09AM 39.9200 -75.5183 252° West 349 402 11,600 960 Climbing New York Center
08:10AM 39.8839 -75.6350 248° West 354 407 12,000 1,560 Climbing New York Center
08:11AM 39.8544 -75.7411 250° West 354 407 14,700 2,460 Climbing New York Center
08:12AM 39.8017 -75.8564 239° Southwest 347 399 17,000 1,920 Climbing New York Center
08:13AM 39.7478 -75.9442 231° Southwest 344 396 18,600 1,680 Climbing New York Center
08:14AM 39.6806 -76.0472 230° Southwest 361 415 20,400 1,680 Climbing New York Center
08:15AM 39.6175 -76.1531 232° Southwest 371 427 22,000 1,500 Climbing New York Center
08:16AM 39.5408 -76.2750 231° Southwest 380 437 23,500 1,440 Climbing Washington Center
08:17AM 39.4942 -76.3903 242° Southwest 393 452 25,000 1,560 Climbing Washington Center
08:18AM 39.4411 -76.5267 243° Southwest 406 467 26,700 1,440 Climbing Washington Center
08:19AM 39.3633 -76.6303 226° Southwest 410 472 27,900 1,200 Climbing Washington Center
08:20AM 39.2811 -76.7339 224° Southwest 415 478 29,100 900 Climbing Washington Center
08:21AM 39.1903 -76.8528 225° Southwest 420 483 29,800 1,260 Climbing Washington Center
08:22AM 39.1036 -76.9639 225° Southwest 430 495 31,600 1,560 Climbing Washington Center
08:23AM 39.0211 -77.0664 224° Southwest 430 495 32,900 1,260 Climbing Washington Center
08:24AM 38.9322 -77.1633 220° Southwest 430 495 34,200 1,080 Climbing Washington Center
08:25AM 38.8414 -77.2600 220° Southwest 425 489 35,100 960 Climbing Washington Center
08:26AM 38.7525 -77.3539 219° Southwest 420 483 36,100 840 Climbing Washington Center
08:27AM 38.6633 -77.4503 220° Southwest 420 483 36,900 780 Climbing Washington Center
08:28AM 38.5722 -77.5489 220° Southwest 420 483 37,800 540 Climbing Washington Center
08:29AM 38.4853 -77.6447 221° Southwest 420 483 38,000 60 Climbing Washington Center
08:30AM 38.3958 -77.7428 221° Southwest 420 483 38,000  Level Washington Center
08:31AM 38.3086 -77.8383 221° Southwest 420 483 38,000  Level Washington Center
08:32AM 38.2192 -77.9333 220° Southwest 420 483 38,000  Level Washington Center
08:33AM 38.1297 -78.0281 220° Southwest 425 489 38,000  Level Washington Center
08:34AM 38.0403 -78.1256 221° Southwest 425 489 38,000  Level Washington Center
08:35AM 37.9656 -78.2047 220° Southwest 413 475 38,000  Level Washington Center
08:36AM 37.8717 -78.2908 216° Southwest 413 475 38,000  Level Washington Center
08:37AM 37.7800 -78.3794 217° Southwest 418 481 38,000  Level Washington Center
08:38AM 37.6883 -78.4653 217° Southwest 418 481 38,000  Level Washington Center
08:39AM 37.5881 -78.5586 216° Southwest 418 481 38,000  Level Washington Center
08:40AM 37.4961 -78.6439 216° Southwest 418 481 38,000  Level Washington Center
08:41AM 37.4044 -78.7292 216° Southwest 418 481 38,000  Level Washington Center
08:42AM 37.3144 -78.8117 216° Southwest 418 481 38,000  Level Washington Center
08:43AM 37.2289 -78.8917 217° Southwest 418 481 38,000  Level Washington Center
08:44AM 37.1369 -78.9761 216° Southwest 418 481 38,000  Level Washington Center
08:45AM 37.0467 -79.0608 217° Southwest 418 481 38,000  Level Washington Center
08:46AM 36.9567 -79.1450 217° Southwest 418 481 38,000  Level Washington Center
08:47AM 36.8667 -79.2292 217° Southwest 418 481 38,100  Climbing Washington Center
08:48AM 36.7656 -79.3203 216° Southwest 413 475 38,000 -60 Descending Washington Center
08:50AM 36.5989 -79.4722 216° Southwest 421 484 38,000  Level Atlanta Center
08:51AM 36.5161 -79.5442 215° Southwest 415 478 38,000  Level Atlanta Center
08:52AM 36.4275 -79.6264 217° Southwest 415 478 38,000  Level Atlanta Center
08:53AM 36.3344 -79.7142 217° Southwest 420 483 38,000  Level Atlanta Center
08:54AM 36.2436 -79.7936 215° Southwest 420 483 38,000  Level Atlanta Center
08:55AM 36.1464 -79.8811 216° Southwest 415 478 38,000  Level Atlanta Center
08:56AM 36.0550 -79.9575 214° Southwest 409 471 38,000  Level Atlanta Center
08:57AM 35.9522 -80.0039 200° South 397 457 38,000  Level Atlanta Center
08:58AM 35.8472 -80.0397 195° South 397 457 38,000  Level Atlanta Center
08:59AM 35.7500 -80.0700 194° South 397 457 38,000  Level Atlanta Center
09:00AM 35.6325 -80.1117 196° South 397 457 38,000  Level Atlanta Center
09:01AM 35.5394 -80.1417 195° South 397 457 38,000  Level Atlanta Center
09:02AM 35.4300 -80.1772 195° South 397 457 38,000  Level Atlanta Center
09:03AM 35.3247 -80.2128 195° South 397 457 38,000  Level Atlanta Center
09:04AM 35.1400 -80.2706 194° South 399 459 38,000  Level Jacksonville Center
09:05AM 35.0303 -80.3069 195° South 399 459 38,000  Level Jacksonville Center
09:06AM 34.9267 -80.3403 195° South 394 453 38,000  Level Jacksonville Center
09:07AM 34.8147 -80.3767 195° South 411 473 38,000  Level Jacksonville Center
09:08AM 34.7050 -80.4100 194° South 400 460 38,000  Level Jacksonville Center
09:09AM 34.5972 -80.4461 195° South 400 460 38,000  Level Jacksonville Center
09:10AM 34.4872 -80.4819 195° South 400 460 38,000  Level Jacksonville Center
09:11AM 34.3814 -80.5150 194° South 400 460 38,000 -60 Level Jacksonville Center
09:12AM 34.2717 -80.5506 195° South 400 460 37,900 -60 Descending Jacksonville Center
09:13AM 34.1639 -80.5861 195° South 400 460 37,900  Level Jacksonville Center
09:14AM 34.0539 -80.6192 194° South 400 460 38,000  Climbing Jacksonville Center
09:15AM 33.9481 -80.6544 195° South 405 466 37,900  Descending Jacksonville Center
09:16AM 33.8381 -80.6872 194° South 405 466 38,000  Climbing Jacksonville Center
09:17AM 33.7300 -80.7200 194° South 405 466 37,900  Descending Jacksonville Center
09:18AM 33.6200 -80.7525 194° South 405 466 38,000  Climbing Jacksonville Center
09:19AM 33.5122 -80.7875 195° South 405 466 38,000 -60 Level Jacksonville Center
09:20AM 33.4000 -80.8225 195° South 411 473 37,900  Descending Jacksonville Center
09:21AM 33.2919 -80.8550 194° South 411 473 38,000  Climbing Jacksonville Center
09:22AM 33.1819 -80.8872 194° South 411 473 38,000  Level Jacksonville Center
09:23AM 33.0717 -80.9219 195° South 411 473 38,000  Level Jacksonville Center
09:24AM 32.9617 -80.9564 195° South 411 473 38,000  Level Jacksonville Center
09:25AM 32.8536 -80.9886 194° South 411 473 38,000 -60 Level Jacksonville Center
09:26AM 32.7414 -81.0181 192° South 416 479 37,900 -60 Descending Jacksonville Center
09:27AM 32.6289 -81.0253 183° South 402 463 37,900  Level Jacksonville Center
09:28AM 32.5161 -81.0325 183° South 402 463 38,000  Climbing Jacksonville Center
09:29AM 32.4056 -81.0397 183° South 409 471 38,000  Level Jacksonville Center
09:30AM 32.3033 -81.0442 182° South 404 465 38,000  Level Jacksonville Center
09:31AM 32.1761 -81.0492 182° South 409 471 38,000  Level Jacksonville Center
09:32AM 32.0550 -81.0567 183° South 424 488 38,000  Level Jacksonville Center
09:33AM 31.9531 -81.0661 184° South 419 482 38,000  Level Jacksonville Center
09:34AM 31.8256 -81.0733 183° South 419 482 38,000  Level Jacksonville Center
09:35AM 31.7111 -81.0831 184° South 424 488 38,000  Level Jacksonville Center
09:36AM 31.5922 -81.0925 184° South 424 488 38,000  Level Jacksonville Center
09:37AM 31.4753 -81.0925 180° South 424 488 38,000  Level Jacksonville Center
09:38AM 31.3644 -81.0922 180° South 431 496 38,000 -60 Level Jacksonville Center
09:39AM 31.2331 -81.0947 181° South 431 496 37,900 -300 Descending Jacksonville Center
09:40AM 31.1100 -81.0969 181° South 434 499 37,500 -720 Descending Jacksonville Center
09:41AM 30.9931 -81.0969 180° South 434 499 36,500 -1,020 Descending Jacksonville Center
09:42AM 30.8678 -81.0992 181° South 440 506 35,500 -1,020 Descending Jacksonville Center
09:43AM 30.7425 -81.0992 180° South 440 506 34,500 -840 Descending Jacksonville Center
09:44AM 30.6172 -81.0992 180° South 440 506 33,900 -300 Descending Jacksonville Center
09:45AM 30.4942 -81.1014 181° South 445 512 33,900  Level Jacksonville Center
09:46AM 30.3667 -81.1014 180° South 445 512 33,900  Level Jacksonville Center
09:47AM 30.2436 -81.1036 181° South 445 512 33,900  Level Jacksonville Center
09:48AM 30.1183 -81.1061 181° South 445 512 33,900 -780 Level Jacksonville Center
09:49AM 29.9931 -81.1083 181° South 450 518 32,400 -2,700 Descending Jacksonville Center
09:50AM 29.8678 -81.1106 181° South 455 524 28,500 -3,600 Descending Jacksonville Center
09:51AM 29.7531 -81.1103 180° South 455 524 25,300 -3,180 Descending Jacksonville Center
09:52AM 29.6300 -81.1125 181° South 455 524 22,200 -2,700 Descending Jacksonville Center
09:53AM 29.5108 -81.1147 181° South 449 517 20,000 -2,340 Descending Jacksonville Center
09:54AM 29.3878 -81.1144 180° South 409 471 17,600 -2,340 Descending Jacksonville Center
09:55AM 29.2814 -81.1142 180° South 386 444 15,400 -2,220 Descending Jacksonville Center
09:56AM 29.1789 -81.1042 175° South 381 438 13,200 -1,740 Descending Jacksonville Center
09:57AM 29.0847 -81.0964 176° South 351 404 12,000 -660 Descending Jacksonville Center
09:58AM 29.0011 -81.0883 175° South 306 352 11,900 -420 Descending Jacksonville Center
09:59AM 28.9217 -81.0778 173° South 291 335 11,200 -1,080 Descending Jacksonville Center
10:00AM 28.8444 -81.0628 170° South 291 335 9,800 -1,740 Descending Jacksonville Center
10:01AM 28.7708 -81.0356 162° South 291 335 7,800 -1,500 Descending Jacksonville Center
10:02AM 28.7258 -81.0908 227° Southwest 218 251 6,800 -1,140 Descending Jacksonville Center
10:03AM 28.7000 -81.1167 221° Southwest 226 260 6,100 -1,320 Descending Orlando TRACON
10:04AM 28.6667 -81.1667 233° Southwest 227 261 4,900 -1,260 Descending Orlando TRACON
10:05AM 28.6333 -81.2333 240° Southwest 215 247 3,800 -960 Descending Orlando TRACON
10:06AM 28.5833 -81.2500 196° South 196 226 3,000 -900 Descending Orlando TRACON
10:07AM 28.5333 -81.2833 210° Southwest 188 216 2,100 -1,020 Descending Orlando TRACON
10:08AM 28.4833 -81.2833 180° South 152 175 1,000 -1,020 Descending Orlando TRACON
10:10AM 28.4294 -81.3090 180° South  Level Estimated
10:17AM 28.4294 -81.3090 336° Northwest  Level Estimated
10:18AM 28.4294 -81.3090 336° Northwest  Level Estimated
10:19AM 28.4294 -81.3090 336° Northwest  Level Estimated
10:20AM 28.4294 -81.3090 336° Northwest  Level Estimated